Time;durP1;ratioP1;P1;durP2;ratioP2;P2;SDS_P1;SDS_P2;PMS_P1;PMS_P2;Temp;Humidity;BMP_temperature;BMP_pressure;BME280_temperature;BME280_humidity;BME280_pressure;Samples;Min_cycle;Max_cycle;Signal;HPM_P1;HPM_P2
2021/12/17 00:01:33;;;;;;;36.40;16.23;;;1.40;99.90;;;;;;5016139;28;20182;-89
2021/12/17 00:04:04;;;;;;;54.77;20.13;;;1.30;99.90;;;;;;5017186;28;20174;-89
2021/12/17 00:06:41;;;;;;;44.00;18.77;;;1.20;99.90;;;;;;5016734;28;20233;-89
2021/12/17 00:09:07;;;;;;;55.43;18.83;;;1.30;99.90;;;;;;5016403;28;20198;-89
2021/12/17 00:11:34;;;;;;;48.63;18.07;;;1.30;99.90;;;;;;5016340;28;20529;-89
2021/12/17 00:13:59;;;;;;;37.07;17.70;;;1.30;99.90;;;;;;5016652;28;20182;-89
2021/12/17 00:16:43;;;;;;;29.23;16.37;;;1.40;99.90;;;;;;5015855;28;20212;-89
2021/12/17 00:44:19;;;;;;;27.60;14.47;;;1.30;99.90;;;;;;5036743;28;20174;-89
2021/12/17 00:49:37;;;;;;;27.90;16.43;;;1.40;99.90;;;;;;5036117;28;20201;-89
2021/12/17 00:52:04;;;;;;;25.47;15.63;;;1.50;99.90;;;;;;5020069;28;20229;-89
2021/12/17 00:54:52;;;;;;;30.70;15.97;;;1.60;99.90;;;;;;5019626;28;20224;-89
2021/12/17 00:57:23;;;;;;;35.33;15.33;;;1.60;99.90;;;;;;5020514;28;20182;-89
2021/12/17 00:59:52;;;;;;;29.27;15.20;;;1.50;99.90;;;;;;5019402;28;20232;-89
2021/12/17 01:02:21;;;;;;;22.70;14.07;;;1.40;99.90;;;;;;5019621;28;20236;-89
2021/12/17 01:04:52;;;;;;;30.93;16.60;;;1.50;99.90;;;;;;5019418;28;20186;-89
2021/12/17 01:07:21;;;;;;;33.43;17.53;;;1.40;99.90;;;;;;5019726;28;20223;-89
2021/12/17 01:09:49;;;;;;;30.13;16.87;;;1.40;99.90;;;;;;5019462;28;20194;-89
2021/12/17 01:12:17;;;;;;;29.17;18.07;;;1.50;99.90;;;;;;5020059;28;20178;-89
2021/12/17 01:15:01;;;;;;;31.43;17.40;;;1.50;99.90;;;;;;5022022;28;20182;-89
2021/12/17 01:17:46;;;;;;;30.73;17.03;;;1.50;99.90;;;;;;5021946;28;20231;-89
2021/12/17 01:42:59;;;;;;;20.33;12.37;;;1.80;99.90;;;;;;5035632;28;20232;-89
2021/12/17 01:45:29;;;;;;;22.23;14.03;;;1.80;99.90;;;;;;5018619;28;20187;-89
2021/12/17 01:47:59;;;;;;;20.63;14.53;;;1.80;99.90;;;;;;5019012;28;20202;-89
2021/12/17 02:01:22;;;;;;;24.13;15.30;;;1.90;99.90;;;;;;5035198;28;20206;-89
2021/12/17 02:03:48;;;;;;;23.73;14.73;;;1.90;99.90;;;;;;5018308;28;20182;-89
2021/12/17 02:06:15;;;;;;;24.37;15.40;;;1.90;99.90;;;;;;5018569;28;20213;-89
2021/12/17 02:08:45;;;;;;;25.80;15.10;;;2.00;99.90;;;;;;5018445;28;20181;-89
2021/12/17 02:19:42;;;;;;;24.67;13.97;;;1.90;99.90;;;;;;5034333;28;20206;-90
2021/12/17 02:33:20;;;;;;;20.90;13.23;;;2.00;99.90;;;;;;5022497;28;20535;-89
2021/12/17 02:35:48;;;;;;;23.47;13.77;;;2.00;99.90;;;;;;5010870;28;20265;-90
2021/12/17 02:38:16;;;;;;;22.63;13.90;;;2.00;99.90;;;;;;5017579;28;20186;-90
2021/12/17 02:47:13;;;;;;;22.77;13.70;;;2.10;99.90;;;;;;5034267;28;20217;-89
2021/12/17 02:49:44;;;;;;;22.77;13.80;;;2.10;99.90;;;;;;5017431;28;20195;-90
2021/12/17 02:52:13;;;;;;;23.60;13.93;;;2.20;99.90;;;;;;5017546;28;20197;-89
2021/12/17 02:54:39;;;;;;;21.70;13.97;;;2.20;99.90;;;;;;5017354;28;20179;-89
2021/12/17 02:57:07;;;;;;;21.80;13.37;;;2.20;99.90;;;;;;5017218;28;20185;-89
2021/12/17 02:59:34;;;;;;;20.40;13.43;;;2.20;99.90;;;;;;5017061;28;20207;-89
2021/12/17 03:02:02;;;;;;;24.27;14.27;;;2.20;99.90;;;;;;5017485;28;20232;-90
2021/12/17 03:04:30;;;;;;;26.03;15.10;;;2.20;99.90;;;;;;5017329;28;20265;-89
2021/12/17 03:06:57;;;;;;;22.57;14.17;;;2.30;99.90;;;;;;5017431;28;20273;-90
2021/12/17 03:09:38;;;;;;;23.90;14.30;;;2.30;99.90;;;;;;5016316;28;20198;-90
2021/12/17 03:12:15;;;;;;;21.80;14.70;;;2.30;99.90;;;;;;5017517;28;20236;-90
2021/12/17 03:14:49;;;;;;;19.77;13.07;;;2.30;99.90;;;;;;5017463;28;20178;-89
2021/12/17 03:17:26;;;;;;;18.40;12.50;;;2.30;99.90;;;;;;5016934;28;20175;-90
2021/12/17 03:25:06;;;;;;;19.53;12.10;;;2.30;99.90;;;;;;5033456;28;20185;-89
2021/12/17 03:27:32;;;;;;;19.40;13.03;;;2.40;99.90;;;;;;5017010;28;20213;-89
2021/12/17 03:29:58;;;;;;;21.60;13.23;;;2.40;99.90;;;;;;5016815;28;20607;-90
2021/12/17 03:32:24;;;;;;;19.73;13.17;;;2.40;99.90;;;;;;5016597;28;20204;-90
2021/12/17 03:34:51;;;;;;;19.03;13.17;;;2.40;99.90;;;;;;5016770;28;20187;-89
2021/12/17 03:37:17;;;;;;;21.17;13.53;;;2.30;99.90;;;;;;5016595;28;20198;-90
2021/12/17 03:39:48;;;;;;;21.90;13.83;;;2.40;99.90;;;;;;5016981;28;20226;-89
2021/12/17 03:42:15;;;;;;;20.93;13.57;;;2.40;99.90;;;;;;5016785;28;20193;-90
2021/12/17 03:44:41;;;;;;;24.07;13.87;;;2.40;99.90;;;;;;5016985;28;20174;-90
2021/12/17 03:47:17;;;;;;;19.93;13.53;;;2.40;99.90;;;;;;5017793;28;20218;-90
2021/12/17 03:50:01;;;;;;;19.70;13.37;;;2.40;99.90;;;;;;5018941;28;20196;-89
2021/12/17 03:52:28;;;;;;;20.17;13.50;;;2.30;99.90;;;;;;5016914;28;20229;-89
2021/12/17 03:54:55;;;;;;;19.83;13.67;;;2.30;99.90;;;;;;5016548;28;20187;-90
2021/12/17 03:57:23;;;;;;;19.13;12.60;;;2.30;99.90;;;;;;5016906;28;20179;-90
2021/12/17 03:59:52;;;;;;;19.97;12.63;;;2.30;99.90;;;;;;5016715;28;20209;-89
2021/12/17 04:02:23;;;;;;;19.37;12.70;;;2.30;99.90;;;;;;5017027;28;20197;-90
2021/12/17 04:04:49;;;;;;;21.67;13.17;;;2.30;99.90;;;;;;5016808;28;20178;-90
2021/12/17 04:07:34;;;;;;;21.70;13.23;;;2.40;99.90;;;;;;5033105;28;20240;-90
2021/12/17 04:10:21;;;;;;;20.17;13.50;;;2.30;99.90;;;;;;5032914;28;20205;-90
2021/12/17 04:12:59;;;;;;;17.90;12.50;;;2.40;99.90;;;;;;5018421;28;20245;-90
2021/12/17 04:15:37;;;;;;;20.37;13.10;;;2.40;99.90;;;;;;5020575;28;20222;-90
2021/12/17 04:18:07;;;;;;;20.13;12.90;;;2.40;99.90;;;;;;5020477;28;20182;-89
2021/12/17 04:21:02;;;;;;;18.77;13.13;;;2.40;99.90;;;;;;5019929;28;20279;-90
2021/12/17 04:23:31;;;;;;;17.67;12.70;;;2.50;99.90;;;;;;5020450;28;20174;-90
2021/12/17 04:25:58;;;;;;;18.70;12.73;;;2.50;99.90;;;;;;5020058;28;20657;-90
2021/12/17 04:28:25;;;;;;;19.07;12.43;;;2.50;99.90;;;;;;5020368;28;20186;-89
2021/12/17 04:30:52;;;;;;;18.27;12.03;;;2.60;99.90;;;;;;5020019;28;20198;-90
2021/12/17 04:33:19;;;;;;;19.07;12.13;;;2.60;99.90;;;;;;5019911;28;20186;-90
2021/12/17 04:35:45;;;;;;;18.70;12.67;;;2.60;99.90;;;;;;5036287;28;20205;-90
2021/12/17 04:38:13;;;;;;;19.50;12.47;;;2.60;99.90;;;;;;5019474;28;20260;-89
2021/12/17 04:40:43;;;;;;;20.57;13.80;;;2.60;99.90;;;;;;5020208;28;20261;-89
2021/12/17 04:44:15;;;;;;;18.17;12.67;;;2.60;99.90;;;;;;5020022;28;20174;-89
2021/12/17 04:57:19;;;;;;;21.33;13.33;;;2.60;99.90;;;;;;5036383;28;20225;-89
2021/12/17 04:58:21;;;;;;;17.50;12.53;;;2.60;99.90;;;;;;5036246;28;20250;-89
2021/12/17 05:01:12;;;;;;;18.90;12.80;;;2.60;99.90;;;;;;5018831;28;20549;-89
2021/12/17 05:03:41;;;;;;;18.57;12.70;;;2.70;99.90;;;;;;5020217;28;20179;-89
2021/12/17 05:06:29;;;;;;;18.53;13.23;;;2.70;99.90;;;;;;5019635;28;20174;-90
2021/12/17 05:09:15;;;;;;;16.70;12.60;;;2.70;99.90;;;;;;5019650;28;20202;-89
2021/12/17 05:19:49;;;;;;;19.70;12.97;;;2.70;99.90;;;;;;5035142;28;20229;-89
2021/12/17 05:22:17;;;;;;;15.70;11.73;;;2.70;99.90;;;;;;5019873;28;20171;-89
2021/12/17 05:24:43;;;;;;;17.80;12.63;;;2.70;99.90;;;;;;5019344;28;20190;-89
2021/12/17 05:27:09;;;;;;;19.93;12.40;;;2.70;99.90;;;;;;5018762;28;20229;-89
2021/12/17 05:29:44;;;;;;;19.13;13.60;;;2.70;99.90;;;;;;5020233;28;20248;-89
2021/12/17 05:32:10;;;;;;;19.50;13.57;;;2.70;99.90;;;;;;5018796;28;20182;-89
2021/12/17 05:34:37;;;;;;;18.10;12.97;;;2.70;99.90;;;;;;5023912;28;20180;-90
2021/12/17 05:37:07;;;;;;;19.57;13.90;;;2.70;99.90;;;;;;5015407;28;20652;-89
2021/12/17 05:39:45;;;;;;;19.37;13.13;;;2.70;99.90;;;;;;5014843;28;20215;-89
2021/12/17 05:42:12;;;;;;;21.70;15.00;;;2.70;99.90;;;;;;5026804;28;20277;-89
2021/12/17 05:44:52;;;;;;;21.33;14.57;;;2.70;99.90;;;;;;5020211;28;20174;-89
2021/12/17 05:47:29;;;;;;;20.67;14.77;;;2.80;99.90;;;;;;5005540;28;20202;-88
2021/12/17 05:50:08;;;;;;;22.77;14.67;;;2.80;99.90;;;;;;4998487;28;20195;-90
2021/12/17 05:52:34;;;;;;;20.33;13.57;;;2.70;99.90;;;;;;5016898;28;20205;-89
2021/12/17 05:55:01;;;;;;;19.87;13.30;;;2.70;99.90;;;;;;5018634;28;20186;-90
2021/12/17 05:57:29;;;;;;;21.20;14.47;;;2.70;99.90;;;;;;5018319;28;20232;-89
2021/12/17 05:59:56;;;;;;;23.50;15.50;;;2.70;99.90;;;;;;5017964;28;20202;-89
2021/12/17 06:02:23;;;;;;;32.57;21.13;;;2.80;99.90;;;;;;5018509;28;20189;-90
2021/12/17 06:04:52;;;;;;;48.40;29.20;;;2.80;99.90;;;;;;5018647;28;20179;-90
2021/12/17 06:07:30;;;;;;;31.57;22.60;;;2.80;99.90;;;;;;5017690;28;20209;-89
2021/12/17 06:10:03;;;;;;;26.97;17.67;;;2.80;99.90;;;;;;5018269;28;20186;-89
2021/12/17 06:12:33;;;;;;;24.47;15.67;;;2.80;99.90;;;;;;5019188;28;20220;-88
2021/12/17 06:15:01;;;;;;;23.07;16.17;;;2.80;99.90;;;;;;5018578;28;20179;-89
2021/12/17 06:17:27;;;;;;;24.77;16.50;;;2.80;99.90;;;;;;5018616;28;20179;-89
2021/12/17 06:19:53;;;;;;;22.80;15.80;;;2.80;99.90;;;;;;5017894;28;20210;-88
2021/12/17 06:22:19;;;;;;;23.10;15.40;;;2.80;99.90;;;;;;5018304;28;20205;-89
2021/12/17 06:24:48;;;;;;;22.60;15.87;;;2.80;99.90;;;;;;5018581;28;20202;-89
2021/12/17 06:27:17;;;;;;;24.93;15.67;;;2.80;99.90;;;;;;5017646;28;20221;-89
2021/12/17 06:29:45;;;;;;;24.67;15.57;;;2.80;99.90;;;;;;5018252;28;20201;-89
2021/12/17 06:32:14;;;;;;;23.47;14.63;;;2.80;99.90;;;;;;5034436;28;20171;-89
2021/12/17 06:34:40;;;;;;;23.77;15.87;;;2.80;99.90;;;;;;5018116;28;20197;-89
2021/12/17 06:37:07;;;;;;;22.20;15.07;;;2.80;99.90;;;;;;5017601;28;20228;-89
2021/12/17 06:39:34;;;;;;;24.03;14.97;;;2.80;99.90;;;;;;5017955;28;20249;-89
2021/12/17 06:42:00;;;;;;;22.33;14.77;;;2.90;99.90;;;;;;5017702;28;20191;-88
2021/12/17 06:44:27;;;;;;;21.53;14.63;;;2.90;99.90;;;;;;5017800;28;20209;-89
2021/12/17 06:47:32;;;;;;;22.10;14.97;;;2.90;99.90;;;;;;5017068;28;20202;-91
2021/12/17 06:49:55;;;;;;;23.27;14.93;;;2.90;99.90;;;;;;5031479;28;20206;-89
2021/12/17 07:22:01;;;;;;;20.57;14.77;;;2.70;99.90;;;;;;5033767;28;20174;-89
2021/12/17 07:33:32;;;;;;;27.47;17.53;;;2.60;99.90;;;;;;5034721;28;20174;-89
2021/12/17 07:36:18;;;;;;;29.77;17.00;;;2.70;99.90;;;;;;5033015;28;20240;-89
2021/12/17 07:38:49;;;;;;;25.27;16.93;;;2.70;99.90;;;;;;5017359;28;20202;-89
2021/12/17 07:41:39;;;;;;;22.30;16.00;;;2.70;99.90;;;;;;5021415;28;20243;-89
2021/12/17 07:44:28;;;;;;;25.13;15.83;;;2.70;99.90;;;;;;5024093;28;20266;-89
2021/12/17 07:47:13;;;;;;;25.30;16.37;;;2.70;99.90;;;;;;5032464;28;20253;-89
2021/12/17 07:49:39;;;;;;;22.83;16.67;;;2.70;99.90;;;;;;5016742;28;20251;-89
2021/12/17 07:52:12;;;;;;;24.90;17.27;;;2.70;99.90;;;;;;5016557;28;20186;-89
2021/12/17 07:54:38;;;;;;;31.43;18.40;;;2.70;99.90;;;;;;5016968;28;20174;-89
2021/12/17 07:57:04;;;;;;;28.07;18.30;;;2.70;99.90;;;;;;5017032;28;20193;-89
2021/12/17 07:59:36;;;;;;;28.57;18.23;;;2.80;99.90;;;;;;5017754;28;20671;-89
2021/12/17 08:02:02;;;;;;;28.03;17.40;;;2.80;99.90;;;;;;5032988;28;20179;-89
2021/12/17 08:04:36;;;;;;;25.60;16.77;;;2.80;99.90;;;;;;5018451;28;20202;-89
2021/12/17 08:07:13;;;;;;;25.83;16.03;;;2.90;99.90;;;;;;5016861;28;20305;-89
2021/12/17 08:09:40;;;;;;;26.47;16.83;;;2.90;99.90;;;;;;5017020;28;20191;-89
2021/12/17 08:12:09;;;;;;;23.53;15.40;;;2.90;99.90;;;;;;5017049;28;20174;-89
2021/12/17 08:14:45;;;;;;;23.57;14.83;;;2.90;99.90;;;;;;5017854;28;20187;-89
2021/12/17 08:25:16;;;;;;;27.23;16.73;;;3.10;99.90;;;;;;5033248;28;20218;-89
2021/12/17 08:28:01;;;;;;;25.10;16.83;;;3.30;99.90;;;;;;5017254;28;20198;-89
2021/12/17 08:30:38;;;;;;;23.60;15.27;;;3.40;99.90;;;;;;5016328;28;20206;-89
2021/12/17 08:33:12;;;;;;;26.13;16.60;;;3.50;99.90;;;;;;5017005;28;20163;-89
2021/12/17 08:35:39;;;;;;;26.27;16.77;;;3.60;99.90;;;;;;5016754;28;20262;-89
2021/12/17 08:38:13;;;;;;;28.83;18.13;;;3.80;99.90;;;;;;5017368;28;20170;-89
2021/12/17 08:40:39;;;;;;;28.93;17.73;;;3.90;99.90;;;;;;5016026;28;20238;-89
2021/12/17 08:43:06;;;;;;;25.80;15.97;;;4.00;99.90;;;;;;5016212;28;20167;-89
2021/12/17 08:45:41;;;;;;;22.73;15.83;;;4.00;99.90;;;;;;5017374;28;20178;-89
2021/12/17 08:48:27;;;;;;;25.07;16.40;;;4.20;99.90;;;;;;5031989;28;20206;-89
2021/12/17 08:51:09;;;;;;;21.40;14.63;;;4.30;99.90;;;;;;5018292;28;20175;-89
2021/12/17 08:53:53;;;;;;;27.03;17.33;;;4.40;99.90;;;;;;5016081;28;20240;-89
2021/12/17 08:56:23;;;;;;;24.33;15.87;;;4.60;99.90;;;;;;5016503;28;20198;-89
2021/12/17 08:58:51;;;;;;;21.23;15.13;;;4.60;99.90;;;;;;5017167;28;20282;-89
2021/12/17 09:01:28;;;;;;;20.73;14.50;;;4.60;99.90;;;;;;5019296;28;20178;-89
2021/12/17 09:03:54;;;;;;;19.87;13.87;;;4.60;99.90;;;;;;5020008;28;20259;-89
2021/12/17 09:06:50;;;;;;;20.97;14.23;;;4.70;99.90;;;;;;5029677;28;20270;-89
2021/12/17 09:09:19;;;;;;;18.90;13.30;;;4.70;99.90;;;;;;5019634;28;20564;-89
2021/12/17 09:11:47;;;;;;;19.20;13.00;;;4.80;99.90;;;;;;5036265;28;20199;-89
2021/12/17 09:14:23;;;;;;;19.03;12.83;;;4.80;99.90;;;;;;5020863;28;20210;-89
2021/12/17 09:16:56;;;;;;;17.80;12.97;;;4.90;99.90;;;;;;5020709;28;20206;-89
2021/12/17 09:19:27;;;;;;;22.60;13.53;;;4.90;99.90;;;;;;5020109;28;20205;-89
2021/12/17 09:21:57;;;;;;;19.00;13.27;;;4.80;99.90;;;;;;5019701;28;20273;-89
2021/12/17 09:24:44;;;;;;;24.97;15.87;;;4.90;99.90;;;;;;5002710;28;20679;-89
2021/12/17 09:27:10;;;;;;;21.40;14.03;;;5.00;99.90;;;;;;5032801;28;20201;-89
2021/12/17 09:30:08;;;;;;;23.33;15.03;;;5.10;99.90;;;;;;5022374;28;20197;-89
2021/12/17 09:32:34;;;;;;;20.10;13.33;;;5.20;99.90;;;;;;5016035;28;20545;-89
2021/12/17 09:35:00;;;;;;;17.33;12.17;;;5.20;99.90;;;;;;5025203;28;20184;-89
2021/12/17 09:37:25;;;;;;;19.10;12.87;;;5.30;99.90;;;;;;5019546;28;20700;-90
2021/12/17 09:39:51;;;;;;;18.33;13.17;;;5.30;99.90;;;;;;5018948;28;20202;-89
2021/12/17 09:42:17;;;;;;;20.17;13.10;;;5.30;99.90;;;;;;5018622;28;20216;-89
2021/12/17 09:44:43;;;;;;;18.70;13.33;;;5.40;99.90;;;;;;5018989;28;20189;-89
2021/12/17 09:47:09;;;;;;;16.47;12.53;;;5.40;99.90;;;;;;5017867;28;20279;-89
2021/12/17 09:49:35;;;;;;;20.00;13.10;;;5.40;99.90;;;;;;5018603;28;20217;-89
2021/12/17 09:52:33;;;;;;;19.07;13.63;;;5.40;99.90;;;;;;5018869;28;20167;-89
2021/12/17 09:55:00;;;;;;;18.47;13.47;;;5.40;99.90;;;;;;5019013;28;20174;-89
2021/12/17 09:57:26;;;;;;;17.20;12.07;;;5.40;99.90;;;;;;5018290;28;20185;-89
2021/12/17 09:59:53;;;;;;;17.47;12.80;;;5.50;99.90;;;;;;5018433;28;20212;-89
2021/12/17 10:02:22;;;;;;;18.13;12.67;;;5.60;99.90;;;;;;5018574;28;20281;-88
2021/12/17 10:04:55;;;;;;;18.40;12.27;;;5.70;99.90;;;;;;5017797;28;20183;-88
2021/12/17 10:07:30;;;;;;;17.13;12.57;;;5.70;99.90;;;;;;5017750;28;20198;-88
2021/12/17 10:14:24;;;;;;;20.17;13.63;;;5.90;99.90;;;;;;5015330;28;20276;-88
2021/12/17 10:17:16;;;;;;;18.63;13.27;;;6.00;99.90;;;;;;5019161;28;20191;-88
2021/12/17 10:19:47;;;;;;;17.33;11.63;;;6.00;99.90;;;;;;5011678;28;20200;-88
2021/12/17 10:22:17;;;;;;;16.00;11.57;;;6.10;99.90;;;;;;5016705;28;20192;-87
2021/12/17 10:24:45;;;;;;;15.67;11.60;;;6.10;99.90;;;;;;5017074;28;20185;-88
2021/12/17 10:27:20;;;;;;;16.73;11.90;;;6.20;99.90;;;;;;5017352;28;20263;-88
2021/12/17 10:29:46;;;;;;;17.03;11.73;;;6.20;99.90;;;;;;5017567;28;20197;-88
2021/12/17 10:32:17;;;;;;;16.10;11.93;;;6.20;99.90;;;;;;5018381;28;20176;-88
2021/12/17 10:38:48;;;;;;;17.00;11.60;;;6.40;99.90;;;;;;5014398;28;20181;-90
2021/12/17 10:41:15;;;;;;;14.87;11.17;;;6.50;99.90;;;;;;5016692;28;20267;-90
2021/12/17 10:43:50;;;;;;;16.10;10.87;;;6.60;99.90;;;;;;5016984;28;20232;-90
2021/12/17 10:51:29;;;;;;;15.17;10.60;;;6.70;99.90;;;;;;5032915;28;20191;-90
2021/12/17 10:53:58;;;;;;;14.53;10.80;;;6.80;99.90;;;;;;5016882;28;20185;-90
2021/12/17 10:56:26;;;;;;;14.27;10.80;;;6.80;99.90;;;;;;5032848;28;20245;-90
2021/12/17 10:58:54;;;;;;;14.97;10.93;;;6.90;99.90;;;;;;5016157;28;20204;-90
2021/12/17 11:01:31;;;;;;;12.30;9.87;;;6.90;99.90;;;;;;5016743;28;20190;-90
2021/12/17 11:04:23;;;;;;;13.47;10.10;;;6.90;99.90;;;;;;5017398;28;20186;-90
2021/12/17 11:07:01;;;;;;;11.40;9.10;;;6.90;99.90;;;;;;5016744;28;20206;-90
2021/12/17 11:09:47;;;;;;;13.23;10.23;;;7.10;99.90;;;;;;5016144;28;20205;-90
2021/12/17 11:12:28;;;;;;;12.33;9.40;;;7.10;99.90;;;;;;5015927;28;20182;-90
2021/12/17 11:15:28;;;;;;;12.03;8.37;;;7.10;99.90;;;;;;4996776;28;20269;-89
2021/12/17 11:17:55;;;;;;;10.77;8.40;;;7.20;99.90;;;;;;5013191;28;20197;-90
2021/12/17 11:20:28;;;;;;;11.57;8.90;;;7.30;99.90;;;;;;5009794;28;20205;-90
2021/12/17 11:22:56;;;;;;;13.03;8.60;;;7.40;99.90;;;;;;5016526;28;20365;-90
2021/12/17 11:25:24;;;;;;;11.20;9.00;;;7.50;99.90;;;;;;5016982;28;20197;-90
2021/12/17 11:28:05;;;;;;;10.20;7.57;;;7.60;99.90;;;;;;5032957;28;20198;-89
2021/12/17 11:30:33;;;;;;;10.70;7.77;;;7.70;99.90;;;;;;5015919;28;20225;-89
2021/12/17 11:33:04;;;;;;;9.67;8.03;;;7.70;99.90;;;;;;5015785;28;20217;-90
2021/12/17 11:35:37;;;;;;;9.43;7.10;;;7.70;99.90;;;;;;5015957;28;20205;-90
2021/12/17 11:38:24;;;;;;;10.37;8.30;;;7.80;99.90;;;;;;5015787;28;20265;-90
2021/12/17 11:41:07;;;;;;;9.27;7.47;;;7.90;99.90;;;;;;5026444;28;20301;-89
2021/12/17 11:43:53;;;;;;;8.97;7.07;;;7.90;99.90;;;;;;5020142;28;20537;-90
2021/12/17 11:46:27;;;;;;;10.20;8.37;;;8.00;99.90;;;;;;5015707;28;20178;-90
2021/12/17 11:49:05;;;;;;;11.93;8.83;;;8.10;99.90;;;;;;5015238;28;20262;-89
2021/12/17 11:51:33;;;;;;;11.33;8.37;;;8.20;99.90;;;;;;5015899;28;20174;-90
2021/12/17 11:54:17;;;;;;;11.10;8.40;;;8.20;99.90;;;;;;5032089;28;20174;-90
2021/12/17 11:56:55;;;;;;;13.37;8.50;;;8.30;99.90;;;;;;5015554;28;20179;-87
2021/12/17 11:59:44;;;;;;;11.57;8.53;;;8.20;99.90;;;;;;5014950;28;20244;-90
2021/12/17 12:02:19;;;;;;;11.43;8.80;;;8.20;99.90;;;;;;5015679;28;20179;-90
2021/12/17 12:05:19;;;;;;;11.83;8.87;;;8.10;99.90;;;;;;5015506;28;20178;-90
2021/12/17 12:07:45;;;;;;;11.37;8.40;;;8.20;99.90;;;;;;5015477;28;20221;-90
2021/12/17 12:10:13;;;;;;;11.33;7.33;;;8.30;99.90;;;;;;5031508;28;20194;-90
2021/12/17 12:12:46;;;;;;;11.00;6.37;;;8.30;99.90;;;;;;5032164;28;20225;-90
2021/12/17 12:15:22;;;;;;;9.63;6.63;;;8.40;99.90;;;;;;5015547;28;20170;-91
2021/12/17 12:17:57;;;;;;;11.70;7.50;;;8.40;99.90;;;;;;5018837;28;20186;-90
2021/12/17 12:20:50;;;;;;;10.27;7.57;;;8.40;99.90;;;;;;5011636;28;20294;-90
2021/12/17 12:23:38;;;;;;;9.13;6.87;;;8.50;99.90;;;;;;5012464;28;20172;-90
2021/12/17 12:26:26;;;;;;;9.03;6.20;;;8.60;99.90;;;;;;5011856;28;20178;-90
2021/12/17 12:29:03;;;;;;;7.80;6.30;;;8.70;99.90;;;;;;5011647;28;20207;-90
2021/12/17 12:31:36;;;;;;;7.50;6.37;;;8.80;99.90;;;;;;5012321;28;20229;-90
2021/12/17 12:34:10;;;;;;;11.03;6.37;;;8.80;99.90;;;;;;5013755;28;20172;-90
2021/12/17 12:37:29;;;;;;;10.70;6.43;;;8.90;99.90;;;;;;5015874;28;20243;-90
2021/12/17 12:39:58;;;;;;;8.93;7.10;;;8.90;99.90;;;;;;5015683;28;20203;-90
2021/12/17 12:42:33;;;;;;;9.37;7.43;;;8.80;99.90;;;;;;5014754;28;20201;-90
2021/12/17 12:44:59;;;;;;;9.77;7.07;;;8.80;99.90;;;;;;5016051;28;20163;-90
2021/12/17 12:47:27;;;;;;;8.53;6.93;;;9.00;99.90;;;;;;5015908;28;20204;-90
2021/12/17 12:50:03;;;;;;;6.87;5.93;;;9.10;99.90;;;;;;5015543;28;20206;-90
2021/12/17 12:52:29;;;;;;;7.37;6.00;;;9.10;99.90;;;;;;5015889;28;20183;-90
2021/12/17 12:55:43;;;;;;;7.47;6.03;;;9.10;99.90;;;;;;5015481;28;20212;-90
2021/12/17 12:58:16;;;;;;;9.27;6.50;;;9.20;99.90;;;;;;5015691;28;20175;-91
2021/12/17 13:00:58;;;;;;;9.40;6.63;;;9.20;99.90;;;;;;5015527;28;20204;-90
2021/12/17 13:03:26;;;;;;;8.27;5.93;;;9.20;99.90;;;;;;5015579;28;20198;-91
2021/12/17 13:05:52;;;;;;;6.73;5.47;;;9.30;99.90;;;;;;5018032;28;20179;-91
2021/12/17 13:08:21;;;;;;;6.70;5.70;;;9.40;99.90;;;;;;5017866;28;20227;-91
2021/12/17 13:10:54;;;;;;;7.80;5.70;;;9.50;99.90;;;;;;5018613;28;20268;-91
2021/12/17 13:21:17;;;;;;;5.87;4.90;;;9.80;99.90;;;;;;5035105;28;20202;-91
2021/12/17 13:23:51;;;;;;;6.57;4.80;;;9.90;99.90;;;;;;5018237;28;20216;-91
2021/12/17 13:26:19;;;;;;;6.63;4.60;;;10.00;99.90;;;;;;5018684;28;20167;-91
2021/12/17 13:29:06;;;;;;;7.80;4.80;;;10.10;99.90;;;;;;5017988;28;20198;-91
2021/12/17 13:31:38;;;;;;;6.10;5.07;;;10.20;99.90;;;;;;5018709;28;20274;-90
2021/12/17 13:34:38;;;;;;;6.80;4.90;;;10.20;99.90;;;;;;5014131;28;20183;-91
2021/12/17 13:40:28;;;;;;;8.20;5.13;;;10.30;99.90;;;;;;5034037;28;20223;-75
2021/12/17 13:42:55;;;;;;;6.33;4.37;;;10.40;99.90;;;;;;5034325;28;20195;-80
2021/12/17 13:45:22;;;;;;;6.17;4.30;;;10.30;99.90;;;;;;5016270;28;20217;-76
2021/12/17 13:47:55;;;;;;;7.07;4.47;;;10.40;99.90;;;;;;5018008;28;20222;-76
2021/12/17 13:50:43;;;;;;;5.23;4.50;;;10.50;99.90;;;;;;5026888;28;20199;-75
2021/12/17 13:53:14;;;;;;;6.27;4.67;;;10.50;99.90;;;;;;5014558;28;20274;-75
2021/12/17 13:55:44;;;;;;;5.50;4.63;;;10.50;99.90;;;;;;5015250;28;20199;-90
2021/12/17 13:58:16;;;;;;;7.00;4.83;;;10.60;99.90;;;;;;5014808;28;20219;-90
2021/12/17 14:00:52;;;;;;;8.63;6.00;;;10.60;99.90;;;;;;5016807;28;20569;-90
2021/12/17 14:03:21;;;;;;;7.20;5.90;;;10.60;99.90;;;;;;5017470;28;20174;-90
2021/12/17 14:05:51;;;;;;;7.17;6.17;;;10.60;99.90;;;;;;5034428;28;20195;-90
2021/12/17 14:08:21;;;;;;;7.43;6.00;;;10.40;99.90;;;;;;5034989;28;20210;-90
2021/12/17 14:10:50;;;;;;;8.40;5.67;;;10.40;99.90;;;;;;5041543;28;20179;-90
2021/12/17 14:13:22;;;;;;;8.13;6.17;;;10.30;99.90;;;;;;5031091;28;20179;-90
2021/12/17 14:15:51;;;;;;;7.40;6.23;;;10.30;99.90;;;;;;5016573;28;20187;-90
2021/12/17 14:18:37;;;;;;;8.47;6.73;;;10.20;99.90;;;;;;5018326;28;20174;-90
2021/12/17 14:21:05;;;;;;;7.47;5.90;;;10.10;99.90;;;;;;5008306;28;20181;-90
2021/12/17 14:23:37;;;;;;;6.63;5.73;;;9.90;99.90;;;;;;5018226;28;20186;-89
2021/12/17 14:26:09;;;;;;;8.03;6.17;;;9.90;99.90;;;;;;5015481;28;20198;-90
2021/12/17 14:28:38;;;;;;;6.27;5.17;;;9.60;99.90;;;;;;5013931;28;20221;-90
2021/12/17 14:31:14;;;;;;;6.70;5.30;;;9.50;99.90;;;;;;5018233;28;20192;-90
2021/12/17 14:33:46;;;;;;;8.53;5.63;;;9.40;99.90;;;;;;5017437;28;20182;-90
2021/12/17 14:36:15;;;;;;;8.30;5.97;;;9.30;99.90;;;;;;5017186;28;20176;-89
2021/12/17 14:38:52;;;;;;;7.47;6.03;;;9.20;99.90;;;;;;5017394;28;20205;-90
2021/12/17 14:41:25;;;;;;;7.30;6.07;;;9.20;99.90;;;;;;5017530;28;20198;-90
2021/12/17 14:43:58;;;;;;;9.13;5.93;;;9.10;99.90;;;;;;5017788;28;20191;-90
2021/12/17 14:46:28;;;;;;;8.70;6.53;;;9.10;99.90;;;;;;5032880;28;20187;-89
2021/12/17 15:03:07;;;;;;;8.60;5.60;;;8.10;99.90;;;;;;5033944;28;20186;-90
2021/12/17 15:05:33;;;;;;;9.40;6.17;;;7.90;99.90;;;;;;5034290;28;20205;-90
2021/12/17 15:08:01;;;;;;;11.33;6.27;;;7.80;99.90;;;;;;5017447;28;20229;-90
2021/12/17 15:10:27;;;;;;;8.53;6.03;;;7.70;99.90;;;;;;5016241;28;20277;-90
2021/12/17 15:12:57;;;;;;;8.50;6.10;;;7.60;99.90;;;;;;5017174;28;20185;-90
2021/12/17 15:15:25;;;;;;;8.97;6.77;;;7.40;99.90;;;;;;5009146;28;20175;-90
2021/12/17 15:17:53;;;;;;;8.53;6.23;;;7.30;99.90;;;;;;5033469;28;20179;-90
2021/12/17 15:20:26;;;;;;;6.93;5.97;;;7.20;99.90;;;;;;5016885;28;20203;-89
2021/12/17 15:22:53;;;;;;;8.73;6.90;;;7.10;99.90;;;;;;5030438;28;20605;-90
2021/12/17 15:25:20;;;;;;;9.83;7.00;;;6.90;99.90;;;;;;5025393;28;20190;-89
2021/12/17 15:27:48;;;;;;;7.13;6.17;;;6.80;99.90;;;;;;5017030;28;20206;-91
2021/12/17 15:30:26;;;;;;;9.07;6.63;;;6.80;99.90;;;;;;5034117;28;20210;-89
2021/12/17 15:32:52;;;;;;;12.13;8.57;;;6.60;99.90;;;;;;5014411;28;20187;-89
2021/12/17 15:35:20;;;;;;;12.77;8.53;;;6.60;99.90;;;;;;5010046;28;20187;-90
2021/12/17 15:37:49;;;;;;;10.97;7.33;;;6.40;99.90;;;;;;5033351;28;20190;-89
2021/12/17 15:40:16;;;;;;;9.40;7.27;;;6.40;99.90;;;;;;5032629;28;20194;-89
2021/12/17 15:42:42;;;;;;;37.30;21.90;;;6.30;99.90;;;;;;5032744;28;20179;-89
2021/12/17 15:45:46;;;;;;;26.37;17.83;;;6.30;99.90;;;;;;5032917;28;20246;-89
2021/12/17 15:48:14;;;;;;;18.07;12.27;;;6.20;99.90;;;;;;4997039;28;20210;-90
2021/12/17 15:50:41;;;;;;;13.50;9.23;;;6.20;99.90;;;;;;4997206;28;20206;-90
2021/12/17 15:53:23;;;;;;;10.30;7.70;;;6.20;99.90;;;;;;4996952;28;20185;-90
2021/12/17 15:55:49;;;;;;;11.60;6.80;;;6.20;99.90;;;;;;4997097;28;20572;-90
2021/12/17 15:58:15;;;;;;;9.10;7.40;;;6.20;99.90;;;;;;4996784;28;20188;-90
2021/12/17 16:00:41;;;;;;;9.43;7.13;;;6.20;99.90;;;;;;4996407;28;20210;-89
2021/12/17 16:03:16;;;;;;;9.73;7.97;;;6.20;99.90;;;;;;4996961;28;20179;-89
2021/12/17 16:05:42;;;;;;;10.97;7.77;;;6.10;99.90;;;;;;4996419;28;20191;-89
2021/12/17 16:08:09;;;;;;;10.37;7.70;;;6.10;99.90;;;;;;4995934;28;20207;-90
2021/12/17 16:21:49;;;;;;;12.93;9.27;;;6.10;99.90;;;;;;5014514;28;20194;-90
2021/12/17 16:24:16;;;;;;;11.40;8.67;;;6.00;99.90;;;;;;4999961;28;20186;-90
2021/12/17 16:27:04;;;;;;;13.83;10.17;;;6.00;99.90;;;;;;4999439;28;20217;-90
2021/12/17 16:29:30;;;;;;;16.60;11.47;;;6.00;99.90;;;;;;4999974;28;20201;-90
2021/12/17 16:31:56;;;;;;;15.10;11.63;;;6.10;99.90;;;;;;4999809;28;20204;-90
2021/12/17 16:34:21;;;;;;;15.40;11.43;;;6.00;99.90;;;;;;4999865;28;20184;-90
2021/12/17 16:36:48;;;;;;;15.53;12.47;;;6.00;99.90;;;;;;5000151;28;20181;-89
2021/12/17 16:39:16;;;;;;;13.07;9.70;;;6.00;99.90;;;;;;4999562;28;20262;-90